Greendale, Indiana
Current Conditions -  °F | °C
As of 3:15 PM on Thursday 29 Jan 2015 (Local Time) from KI67 Reporting Station
Overcast Overcast  
Wind Chill: 28°   Ceiling: 1600
Heat Index: 37°   Visibility: 10mi
Dew Point: 32°   Wind: 16mph
Humidity: 81%   Direction: 280°W
Pressure: 29.94"   Gusts: 23mph
Location:  39.1597°N, 84.8764°W
Report Text: KI67 292015Z AUTO 28014G20KT 10SM OVC016 03/00 A2994 RMK AO1
Loading
Personal Weather Stations






























Interactive Weather Map New forecast layout! Learn more

10-Day Weather Forecast

Advertisements
Track Severe Weather on mobile